sensor_id;sensor_type;location;lat;lon;timestamp;temperature;humidity
72338;DHT22;60294;64.134;-21.862;2023-01-01T00:00:11;-3273.70;86.30
72338;DHT22;60294;64.134;-21.862;2023-01-01T00:02:37;-3273.70;86.40
72338;DHT22;60294;64.134;-21.862;2023-01-01T00:05:04;-3273.70;86.40
72338;DHT22;60294;64.134;-21.862;2023-01-01T00:07:30;-3273.80;86.40
72338;DHT22;60294;64.134;-21.862;2023-01-01T00:09:56;-3273.80;86.40
72338;DHT22;60294;64.134;-21.862;2023-01-01T00:12:40;-3273.80;86.30
72338;DHT22;60294;64.134;-21.862;2023-01-01T00:15:06;-3273.80;86.20
72338;DHT22;60294;64.134;-21.862;2023-01-01T00:17:32;-3273.80;86.10
72338;DHT22;60294;64.134;-21.862;2023-01-01T00:19:58;-3273.90;86.10
72338;DHT22;60294;64.134;-21.862;2023-01-01T00:22:24;-3273.90;86.00
72338;DHT22;60294;64.134;-21.862;2023-01-01T00:24:51;-3273.90;86.00
72338;DHT22;60294;64.134;-21.862;2023-01-01T00:27:17;-3273.90;85.90
72338;DHT22;60294;64.134;-21.862;2023-01-01T00:29:43;-3273.90;85.90
72338;DHT22;60294;64.134;-21.862;2023-01-01T00:32:09;-3273.90;85.60
72338;DHT22;60294;64.134;-21.862;2023-01-01T00:34:36;-3273.90;85.30
72338;DHT22;60294;64.134;-21.862;2023-01-01T00:37:02;-3273.90;84.30
72338;DHT22;60294;64.134;-21.862;2023-01-01T00:39:28;-3273.90;84.60
72338;DHT22;60294;64.134;-21.862;2023-01-01T00:41:54;-3273.90;83.30
72338;DHT22;60294;64.134;-21.862;2023-01-01T00:44:20;-3273.80;81.40
72338;DHT22;60294;64.134;-21.862;2023-01-01T00:46:45;-3273.80;80.40
72338;DHT22;60294;64.134;-21.862;2023-01-01T00:49:11;-3273.50;80.10
72338;DHT22;60294;64.134;-21.862;2023-01-01T00:51:37;-3273.50;80.90
72338;DHT22;60294;64.134;-21.862;2023-01-01T00:54:03;-3273.40;81.10
72338;DHT22;60294;64.134;-21.862;2023-01-01T00:56:29;-3273.20;81.20
72338;DHT22;60294;64.134;-21.862;2023-01-01T00:58:55;-3273.10;80.90
72338;DHT22;60294;64.134;-21.862;2023-01-01T01:03:47;-3273.20;79.90
72338;DHT22;60294;64.134;-21.862;2023-01-01T01:06:15;-3273.20;80.00
72338;DHT22;60294;64.134;-21.862;2023-01-01T01:08:43;-3273.30;79.30
72338;DHT22;60294;64.134;-21.862;2023-01-01T01:11:22;-3273.40;78.90
72338;DHT22;60294;64.134;-21.862;2023-01-01T01:13:50;-3273.40;78.30
72338;DHT22;60294;64.134;-21.862;2023-01-01T01:16:19;-3273.50;77.70
72338;DHT22;60294;64.134;-21.862;2023-01-01T01:18:46;-3273.40;77.20
72338;DHT22;60294;64.134;-21.862;2023-01-01T01:21:16;-3273.40;77.00
72338;DHT22;60294;64.134;-21.862;2023-01-01T01:23:43;-3273.40;77.10
72338;DHT22;60294;64.134;-21.862;2023-01-01T01:26:14;-3273.40;77.60
72338;DHT22;60294;64.134;-21.862;2023-01-01T01:28:41;-3273.40;77.40
72338;DHT22;60294;64.134;-21.862;2023-01-01T01:31:07;-3273.30;77.70
72338;DHT22;60294;64.134;-21.862;2023-01-01T01:33:33;-3273.30;77.30
72338;DHT22;60294;64.134;-21.862;2023-01-01T01:36:00;-3273.30;77.20
72338;DHT22;60294;64.134;-21.862;2023-01-01T01:38:26;-3273.40;77.20
72338;DHT22;60294;64.134;-21.862;2023-01-01T01:40:52;-3273.50;76.10
72338;DHT22;60294;64.134;-21.862;2023-01-01T01:46:13;-3273.40;75.90
72338;DHT22;60294;64.134;-21.862;2023-01-01T01:48:41;-3273.30;75.30
72338;DHT22;60294;64.134;-21.862;2023-01-01T01:51:09;-3273.20;75.10
72338;DHT22;60294;64.134;-21.862;2023-01-01T01:53:40;-3273.20;75.60
72338;DHT22;60294;64.134;-21.862;2023-01-01T01:56:09;-3273.10;75.80
72338;DHT22;60294;64.134;-21.862;2023-01-01T01:58:36;-3273.00;74.90
72338;DHT22;60294;64.134;-21.862;2023-01-01T02:01:02;-3273.00;75.20
72338;DHT22;60294;64.134;-21.862;2023-01-01T02:05:58;-3273.00;75.60
72338;DHT22;60294;64.134;-21.862;2023-01-01T02:08:25;-3272.90;75.50
72338;DHT22;60294;64.134;-21.862;2023-01-01T02:10:51;-3272.80;75.30
72338;DHT22;60294;64.134;-21.862;2023-01-01T02:13:18;-3272.90;75.40
72338;DHT22;60294;64.134;-21.862;2023-01-01T02:15:51;-3272.80;75.70
72338;DHT22;60294;64.134;-21.862;2023-01-01T02:18:23;-3272.70;75.30
72338;DHT22;60294;64.134;-21.862;2023-01-01T02:20:55;-3272.80;74.70
72338;DHT22;60294;64.134;-21.862;2023-01-01T02:23:52;-3272.70;76.20
72338;DHT22;60294;64.134;-21.862;2023-01-01T02:28:51;-3272.70;75.70
72338;DHT22;60294;64.134;-21.862;2023-01-01T02:31:26;-3272.70;75.20
72338;DHT22;60294;64.134;-21.862;2023-01-01T02:33:59;-3272.60;74.80
72338;DHT22;60294;64.134;-21.862;2023-01-01T02:36:27;-3272.70;73.40
72338;DHT22;60294;64.134;-21.862;2023-01-01T02:38:56;-3272.60;73.10
72338;DHT22;60294;64.134;-21.862;2023-01-01T02:41:39;-3272.60;73.60
72338;DHT22;60294;64.134;-21.862;2023-01-01T02:44:06;-3272.50;74.30
72338;DHT22;60294;64.134;-21.862;2023-01-01T02:46:33;-3272.40;74.30
72338;DHT22;60294;64.134;-21.862;2023-01-01T02:49:00;-3272.30;74.70
72338;DHT22;60294;64.134;-21.862;2023-01-01T03:10:35;-3272.30;74.20
72338;DHT22;60294;64.134;-21.862;2023-01-01T03:18:23;-3272.40;74.60
72338;DHT22;60294;64.134;-21.862;2023-01-01T03:20:54;-3272.30;74.80
72338;DHT22;60294;64.134;-21.862;2023-01-01T03:23:27;-3272.40;75.50
72338;DHT22;60294;64.134;-21.862;2023-01-01T03:25:56;-3272.40;74.80
72338;DHT22;60294;64.134;-21.862;2023-01-01T03:28:28;-3272.40;74.80
72338;DHT22;60294;64.134;-21.862;2023-01-01T03:30:56;-3272.30;75.20
72338;DHT22;60294;64.134;-21.862;2023-01-01T03:33:24;-3272.30;74.70
72338;DHT22;60294;64.134;-21.862;2023-01-01T03:36:18;-3272.30;75.80
72338;DHT22;60294;64.134;-21.862;2023-01-01T03:38:57;-3272.40;75.50
72338;DHT22;60294;64.134;-21.862;2023-01-01T03:41:46;-3272.30;76.10
72338;DHT22;60294;64.134;-21.862;2023-01-01T03:46:39;-3272.30;75.70
72338;DHT22;60294;64.134;-21.862;2023-01-01T03:49:07;-3272.20;75.70
72338;DHT22;60294;64.134;-21.862;2023-01-01T03:57:43;-3272.10;75.80
72338;DHT22;60294;64.134;-21.862;2023-01-01T04:00:18;-3272.10;75.90
72338;DHT22;60294;64.134;-21.862;2023-01-01T04:05:17;-3272.00;76.10
72338;DHT22;60294;64.134;-21.862;2023-01-01T04:07:44;-3272.10;76.30
72338;DHT22;60294;64.134;-21.862;2023-01-01T04:10:10;-3272.10;76.40
72338;DHT22;60294;64.134;-21.862;2023-01-01T04:12:52;-3272.10;76.50
72338;DHT22;60294;64.134;-21.862;2023-01-01T04:15:26;-3272.00;75.90
72338;DHT22;60294;64.134;-21.862;2023-01-01T04:17:53;-3272.00;75.80
72338;DHT22;60294;64.134;-21.862;2023-01-01T04:20:19;-3272.10;75.90
72338;DHT22;60294;64.134;-21.862;2023-01-01T04:22:45;-3272.00;76.10
72338;DHT22;60294;64.134;-21.862;2023-01-01T04:25:11;-3272.00;75.40
72338;DHT22;60294;64.134;-21.862;2023-01-01T04:27:38;-3272.00;74.90
72338;DHT22;60294;64.134;-21.862;2023-01-01T04:30:07;-3272.10;75.60
72338;DHT22;60294;64.134;-21.862;2023-01-01T04:32:33;-3272.00;75.90
72338;DHT22;60294;64.134;-21.862;2023-01-01T04:34:59;-3272.00;76.60
72338;DHT22;60294;64.134;-21.862;2023-01-01T04:37:25;-3272.00;76.20
72338;DHT22;60294;64.134;-21.862;2023-01-01T04:39:51;-3272.10;75.30
72338;DHT22;60294;64.134;-21.862;2023-01-01T04:42:17;-3272.00;76.10
72338;DHT22;60294;64.134;-21.862;2023-01-01T04:44:43;-3272.00;76.80
72338;DHT22;60294;64.134;-21.862;2023-01-01T04:47:09;-3272.00;76.70
72338;DHT22;60294;64.134;-21.862;2023-01-01T04:49:35;-3272.00;75.90
72338;DHT22;60294;64.134;-21.862;2023-01-01T04:52:01;-3272.00;75.40
72338;DHT22;60294;64.134;-21.862;2023-01-01T04:54:27;-3272.10;75.20
72338;DHT22;60294;64.134;-21.862;2023-01-01T04:56:53;-3272.00;75.00
72338;DHT22;60294;64.134;-21.862;2023-01-01T04:59:19;-3272.00;75.70
72338;DHT22;60294;64.134;-21.862;2023-01-01T05:01:44;-3272.00;74.40
72338;DHT22;60294;64.134;-21.862;2023-01-01T05:04:13;-3272.00;74.80
72338;DHT22;60294;64.134;-21.862;2023-01-01T05:06:39;-3272.00;75.10
72338;DHT22;60294;64.134;-21.862;2023-01-01T05:09:05;-3272.00;75.00
72338;DHT22;60294;64.134;-21.862;2023-01-01T05:11:31;-3272.00;74.80
72338;DHT22;60294;64.134;-21.862;2023-01-01T05:13:58;-3272.00;75.40
72338;DHT22;60294;64.134;-21.862;2023-01-01T05:16:31;-3272.00;75.80
72338;DHT22;60294;64.134;-21.862;2023-01-01T05:18:57;-3272.00;76.60
72338;DHT22;60294;64.134;-21.862;2023-01-01T05:21:25;-3272.00;75.60
72338;DHT22;60294;64.134;-21.862;2023-01-01T05:23:56;-3272.00;75.90
72338;DHT22;60294;64.134;-21.862;2023-01-01T05:26:25;-3272.00;76.10
72338;DHT22;60294;64.134;-21.862;2023-01-01T05:28:53;-3272.00;76.40
72338;DHT22;60294;64.134;-21.862;2023-01-01T05:31:23;-3271.90;76.50
72338;DHT22;60294;64.134;-21.862;2023-01-01T05:33:49;-3271.90;76.20
72338;DHT22;60294;64.134;-21.862;2023-01-01T05:36:21;-3271.90;75.90
72338;DHT22;60294;64.134;-21.862;2023-01-01T05:38:47;-3271.90;75.90
72338;DHT22;60294;64.134;-21.862;2023-01-01T05:41:15;-3271.90;75.80
72338;DHT22;60294;64.134;-21.862;2023-01-01T05:43:41;-3271.80;75.50
72338;DHT22;60294;64.134;-21.862;2023-01-01T05:46:10;-3272.00;70.50
72338;DHT22;60294;64.134;-21.862;2023-01-01T05:48:36;-3272.00;68.40
72338;DHT22;60294;64.134;-21.862;2023-01-01T05:51:08;-3272.00;67.30
72338;DHT22;60294;64.134;-21.862;2023-01-01T05:53:34;-3272.00;66.60
72338;DHT22;60294;64.134;-21.862;2023-01-01T05:56:01;-3272.00;66.50
72338;DHT22;60294;64.134;-21.862;2023-01-01T05:58:28;-3272.00;65.10
72338;DHT22;60294;64.134;-21.862;2023-01-01T06:00:55;-3272.00;63.80
72338;DHT22;60294;64.134;-21.862;2023-01-01T06:03:21;-3272.10;62.80
72338;DHT22;60294;64.134;-21.862;2023-01-01T06:05:47;-3272.00;62.80
72338;DHT22;60294;64.134;-21.862;2023-01-01T06:08:13;-3272.10;62.80
72338;DHT22;60294;64.134;-21.862;2023-01-01T06:10:39;-3272.10;63.50
72338;DHT22;60294;64.134;-21.862;2023-01-01T06:13:05;-3272.10;63.70
72338;DHT22;60294;64.134;-21.862;2023-01-01T06:15:31;-3272.10;63.60
72338;DHT22;60294;64.134;-21.862;2023-01-01T06:17:57;-3272.10;63.50
72338;DHT22;60294;64.134;-21.862;2023-01-01T06:20:24;-3272.00;62.80
72338;DHT22;60294;64.134;-21.862;2023-01-01T06:22:50;-3272.00;62.80
72338;DHT22;60294;64.134;-21.862;2023-01-01T06:25:17;-3271.90;64.30
72338;DHT22;60294;64.134;-21.862;2023-01-01T06:27:42;-3271.80;67.20
72338;DHT22;60294;64.134;-21.862;2023-01-01T06:30:08;-3271.80;68.70
72338;DHT22;60294;64.134;-21.862;2023-01-01T06:32:34;-3271.70;68.50
72338;DHT22;60294;64.134;-21.862;2023-01-01T06:35:00;-3271.60;68.40
72338;DHT22;60294;64.134;-21.862;2023-01-01T06:37:27;-3271.60;68.40
72338;DHT22;60294;64.134;-21.862;2023-01-01T06:39:53;-3271.60;68.30
72338;DHT22;60294;64.134;-21.862;2023-01-01T06:42:19;-3271.70;68.00
72338;DHT22;60294;64.134;-21.862;2023-01-01T06:44:45;-3271.70;67.90
72338;DHT22;60294;64.134;-21.862;2023-01-01T06:47:10;-3271.60;68.10
72338;DHT22;60294;64.134;-21.862;2023-01-01T06:49:36;-3271.60;68.20
72338;DHT22;60294;64.134;-21.862;2023-01-01T06:52:02;-3271.40;68.70
72338;DHT22;60294;64.134;-21.862;2023-01-01T06:54:28;-3271.40;68.80
72338;DHT22;60294;64.134;-21.862;2023-01-01T06:56:54;-3271.30;69.20
72338;DHT22;60294;64.134;-21.862;2023-01-01T06:59:19;-3271.30;69.60
72338;DHT22;60294;64.134;-21.862;2023-01-01T07:01:45;-3271.20;69.20
72338;DHT22;60294;64.134;-21.862;2023-01-01T07:04:14;-3271.20;68.50
72338;DHT22;60294;64.134;-21.862;2023-01-01T07:06:40;-3271.10;67.80
72338;DHT22;60294;64.134;-21.862;2023-01-01T07:09:07;-3271.10;67.50
72338;DHT22;60294;64.134;-21.862;2023-01-01T07:11:33;-3271.00;68.00
72338;DHT22;60294;64.134;-21.862;2023-01-01T07:13:59;-3271.00;68.50
72338;DHT22;60294;64.134;-21.862;2023-01-01T07:16:25;-3270.90;69.40
72338;DHT22;60294;64.134;-21.862;2023-01-01T07:18:51;-3270.90;69.80
72338;DHT22;60294;64.134;-21.862;2023-01-01T07:23:52;-3270.80;70.00
72338;DHT22;60294;64.134;-21.862;2023-01-01T07:26:22;-3270.80;70.10
72338;DHT22;60294;64.134;-21.862;2023-01-01T07:28:48;-3270.70;70.30
72338;DHT22;60294;64.134;-21.862;2023-01-01T07:31:13;-3270.70;70.00
72338;DHT22;60294;64.134;-21.862;2023-01-01T07:33:39;-3270.60;70.10
72338;DHT22;60294;64.134;-21.862;2023-01-01T07:36:05;-3270.50;70.60
72338;DHT22;60294;64.134;-21.862;2023-01-01T07:38:32;-3270.40;70.70
72338;DHT22;60294;64.134;-21.862;2023-01-01T07:40:59;-3270.30;71.00
72338;DHT22;60294;64.134;-21.862;2023-01-01T07:43:24;-3270.30;71.50
72338;DHT22;60294;64.134;-21.862;2023-01-01T07:45:50;-3270.40;71.60
72338;DHT22;60294;64.134;-21.862;2023-01-01T07:48:16;-3270.40;71.70
72338;DHT22;60294;64.134;-21.862;2023-01-01T07:50:42;-3270.50;71.50
72338;DHT22;60294;64.134;-21.862;2023-01-01T07:53:08;-3270.50;71.40
72338;DHT22;60294;64.134;-21.862;2023-01-01T07:55:34;-3270.50;71.10
72338;DHT22;60294;64.134;-21.862;2023-01-01T07:58:00;-3270.50;71.00
72338;DHT22;60294;64.134;-21.862;2023-01-01T08:00:27;-3270.30;70.80
72338;DHT22;60294;64.134;-21.862;2023-01-01T08:02:53;-3270.10;70.90
72338;DHT22;60294;64.134;-21.862;2023-01-01T08:05:18;-3270.00;71.10
72338;DHT22;60294;64.134;-21.862;2023-01-01T08:07:46;-3269.50;70.80
72338;DHT22;60294;64.134;-21.862;2023-01-01T08:10:12;-3269.40;71.70
72338;DHT22;60294;64.134;-21.862;2023-01-01T08:12:38;-3269.30;71.90
72338;DHT22;60294;64.134;-21.862;2023-01-01T08:15:05;-3269.00;72.60
72338;DHT22;60294;64.134;-21.862;2023-01-01T08:17:31;-3269.00;73.40
72338;DHT22;60294;64.134;-21.862;2023-01-01T08:19:57;-3268.90;73.50
72338;DHT22;60294;64.134;-21.862;2023-01-01T08:22:23;-3269.00;73.60
72338;DHT22;60294;64.134;-21.862;2023-01-01T08:24:49;-3269.00;73.60
72338;DHT22;60294;64.134;-21.862;2023-01-01T08:27:15;-3269.00;73.70
72338;DHT22;60294;64.134;-21.862;2023-01-01T08:29:42;-3269.20;74.10
72338;DHT22;60294;64.134;-21.862;2023-01-01T08:32:08;-3269.30;74.70
72338;DHT22;60294;64.134;-21.862;2023-01-01T08:34:34;-3269.40;74.50
72338;DHT22;60294;64.134;-21.862;2023-01-01T08:36:59;-3269.50;74.90
72338;DHT22;60294;64.134;-21.862;2023-01-01T08:39:25;-3269.60;74.70
72338;DHT22;60294;64.134;-21.862;2023-01-01T08:41:51;-3269.70;75.50
72338;DHT22;60294;64.134;-21.862;2023-01-01T08:44:18;-3269.90;76.30
72338;DHT22;60294;64.134;-21.862;2023-01-01T08:46:43;-3269.90;75.90
72338;DHT22;60294;64.134;-21.862;2023-01-01T08:49:09;-3269.70;74.70
72338;DHT22;60294;64.134;-21.862;2023-01-01T08:51:35;-3269.80;75.70
72338;DHT22;60294;64.134;-21.862;2023-01-01T08:54:01;-3270.00;76.80
72338;DHT22;60294;64.134;-21.862;2023-01-01T08:56:27;-3270.10;78.60
72338;DHT22;60294;64.134;-21.862;2023-01-01T08:58:53;-3270.10;79.10
72338;DHT22;60294;64.134;-21.862;2023-01-01T09:01:19;-3270.00;79.10
72338;DHT22;60294;64.134;-21.862;2023-01-01T09:03:49;-3269.90;77.90
72338;DHT22;60294;64.134;-21.862;2023-01-01T09:06:15;-3269.80;77.40
72338;DHT22;60294;64.134;-21.862;2023-01-01T09:08:41;-3269.60;77.00
72338;DHT22;60294;64.134;-21.862;2023-01-01T09:11:07;-3269.40;76.30
72338;DHT22;60294;64.134;-21.862;2023-01-01T09:13:39;-3269.10;76.20
72338;DHT22;60294;64.134;-21.862;2023-01-01T09:16:06;-3269.00;76.20
72338;DHT22;60294;64.134;-21.862;2023-01-01T09:18:32;-3268.80;76.40
72338;DHT22;60294;64.134;-21.862;2023-01-01T09:20:57;-3268.70;77.40
72338;DHT22;60294;64.134;-21.862;2023-01-01T09:23:23;-3268.60;78.10
72338;DHT22;60294;64.134;-21.862;2023-01-01T09:25:49;-3268.40;78.30
72338;DHT22;60294;64.134;-21.862;2023-01-01T09:28:15;-3268.30;79.60
72338;DHT22;60294;64.134;-21.862;2023-01-01T09:30:40;-3268.20;80.70
72338;DHT22;60294;64.134;-21.862;2023-01-01T09:33:06;-3268.10;80.50
72338;DHT22;60294;64.134;-21.862;2023-01-01T09:35:32;-3268.00;80.10
72338;DHT22;60294;64.134;-21.862;2023-01-01T09:37:58;-3268.00;80.70
72338;DHT22;60294;64.134;-21.862;2023-01-01T09:40:50;-3267.90;80.70
72338;DHT22;60294;64.134;-21.862;2023-01-01T09:46:23;-3267.60;80.10
72338;DHT22;60294;64.134;-21.862;2023-01-01T09:48:57;-3267.50;80.30
72338;DHT22;60294;64.134;-21.862;2023-01-01T09:51:26;-3267.50;80.30
72338;DHT22;60294;64.134;-21.862;2023-01-01T09:54:11;-3267.40;80.30
72338;DHT22;60294;64.134;-21.862;2023-01-01T09:56:40;-3267.40;80.50
72338;DHT22;60294;64.134;-21.862;2023-01-01T09:59:09;-3267.30;80.40
72338;DHT22;60294;64.134;-21.862;2023-01-01T10:01:56;-3267.30;80.40
72338;DHT22;60294;64.134;-21.862;2023-01-01T10:07:11;-3267.20;80.70
72338;DHT22;60294;64.134;-21.862;2023-01-01T10:09:53;-3267.20;80.70
72338;DHT22;60294;64.134;-21.862;2023-01-01T10:15:01;-3267.00;79.90
72338;DHT22;60294;64.134;-21.862;2023-01-01T10:17:39;-3267.00;80.70
72338;DHT22;60294;64.134;-21.862;2023-01-01T10:20:16;-3267.10;80.90
72338;DHT22;60294;64.134;-21.862;2023-01-01T10:22:46;-3267.20;80.70
72338;DHT22;60294;64.134;-21.862;2023-01-01T10:25:22;-3267.20;80.70
72338;DHT22;60294;64.134;-21.862;2023-01-01T10:27:59;-3267.30;80.70
72338;DHT22;60294;64.134;-21.862;2023-01-01T10:30:27;-3267.20;80.00
72338;DHT22;60294;64.134;-21.862;2023-01-01T10:32:54;-3267.10;79.50
72338;DHT22;60294;64.134;-21.862;2023-01-01T10:35:34;-3267.10;79.70
72338;DHT22;60294;64.134;-21.862;2023-01-01T10:38:03;-3267.10;79.90
72338;DHT22;60294;64.134;-21.862;2023-01-01T10:40:30;-3267.10;79.80
72338;DHT22;60294;64.134;-21.862;2023-01-01T10:42:58;-3267.00;79.50
72338;DHT22;60294;64.134;-21.862;2023-01-01T10:45:37;-3267.00;79.30
72338;DHT22;60294;64.134;-21.862;2023-01-01T10:50:56;-3266.90;79.10
72338;DHT22;60294;64.134;-21.862;2023-01-01T10:53:28;-3266.90;79.00
72338;DHT22;60294;64.134;-21.862;2023-01-01T10:56:11;-3266.90;78.90
72338;DHT22;60294;64.134;-21.862;2023-01-01T10:58:49;-3266.90;78.90
72338;DHT22;60294;64.134;-21.862;2023-01-01T11:01:23;-3266.90;78.50
72338;DHT22;60294;64.134;-21.862;2023-01-01T11:04:01;-3266.90;78.00
72338;DHT22;60294;64.134;-21.862;2023-01-01T11:06:35;-3266.80;77.80
72338;DHT22;60294;64.134;-21.862;2023-01-01T11:09:26;-3266.80;77.70
72338;DHT22;60294;64.134;-21.862;2023-01-01T11:12:05;-3266.70;77.60
72338;DHT22;60294;64.134;-21.862;2023-01-01T11:14:42;-3266.70;77.70
72338;DHT22;60294;64.134;-21.862;2023-01-01T11:17:09;-3266.80;77.70
72338;DHT22;60294;64.134;-21.862;2023-01-01T11:19:36;-3266.80;77.80
72338;DHT22;60294;64.134;-21.862;2023-01-01T11:22:05;-3266.90;77.90
72338;DHT22;60294;64.134;-21.862;2023-01-01T11:24:32;-3266.90;77.90
72338;DHT22;60294;64.134;-21.862;2023-01-01T11:27:18;-3267.00;77.90
72338;DHT22;60294;64.134;-21.862;2023-01-01T11:29:45;-3267.00;77.50
72338;DHT22;60294;64.134;-21.862;2023-01-01T11:32:20;-3267.00;77.30
72338;DHT22;60294;64.134;-21.862;2023-01-01T11:34:59;-3266.90;77.30
72338;DHT22;60294;64.134;-21.862;2023-01-01T11:37:31;-3266.90;77.50
72338;DHT22;60294;64.134;-21.862;2023-01-01T11:39:59;-3266.90;77.40
72338;DHT22;60294;64.134;-21.862;2023-01-01T11:42:28;-3266.90;77.50
72338;DHT22;60294;64.134;-21.862;2023-01-01T11:45:01;-3267.00;77.60
72338;DHT22;60294;64.134;-21.862;2023-01-01T11:47:32;-3267.00;77.70
72338;DHT22;60294;64.134;-21.862;2023-01-01T11:52:49;-3267.00;77.80
72338;DHT22;60294;64.134;-21.862;2023-01-01T11:55:49;-3267.00;77.50
72338;DHT22;60294;64.134;-21.862;2023-01-01T12:01:03;-3267.10;77.20
72338;DHT22;60294;64.134;-21.862;2023-01-01T12:11:40;-3267.20;76.40
72338;DHT22;60294;64.134;-21.862;2023-01-01T12:16:59;-3267.20;76.50
72338;DHT22;60294;64.134;-21.862;2023-01-01T12:19:30;-3267.20;76.30
72338;DHT22;60294;64.134;-21.862;2023-01-01T12:21:59;-3267.30;76.30
72338;DHT22;60294;64.134;-21.862;2023-01-01T12:24:45;-3267.30;75.90
72338;DHT22;60294;64.134;-21.862;2023-01-01T12:38:09;-3267.60;75.90
72338;DHT22;60294;64.134;-21.862;2023-01-01T12:46:32;-3267.80;76.20
72338;DHT22;60294;64.134;-21.862;2023-01-01T12:49:16;-3267.90;76.40
72338;DHT22;60294;64.134;-21.862;2023-01-01T12:57:31;-3268.50;77.20
72338;DHT22;60294;64.134;-21.862;2023-01-01T13:00:02;-3268.50;76.50
72338;DHT22;60294;64.134;-21.862;2023-01-01T13:02:31;-3268.60;76.30
72338;DHT22;60294;64.134;-21.862;2023-01-01T13:05:27;-3268.70;76.00
72338;DHT22;60294;64.134;-21.862;2023-01-01T13:07:55;-3268.90;76.20
72338;DHT22;60294;64.134;-21.862;2023-01-01T13:10:37;-3269.20;76.50
72338;DHT22;60294;64.134;-21.862;2023-01-01T13:13:04;-3269.40;76.50
72338;DHT22;60294;64.134;-21.862;2023-01-01T13:21:38;-3269.90;76.00
72338;DHT22;60294;64.134;-21.862;2023-01-01T13:23:47;-3270.10;76.70
72338;DHT22;60294;64.134;-21.862;2023-01-01T13:28:43;-3270.40;77.30
72338;DHT22;60294;64.134;-21.862;2023-01-01T13:31:09;-3270.60;78.20
72338;DHT22;60294;64.134;-21.862;2023-01-01T13:33:34;-3270.70;78.60
72338;DHT22;60294;64.134;-21.862;2023-01-01T13:41:42;-3271.10;80.00
72338;DHT22;60294;64.134;-21.862;2023-01-01T13:57:35;-3271.70;84.20
72338;DHT22;60294;64.134;-21.862;2023-01-01T14:00:23;-3271.50;83.50
72338;DHT22;60294;64.134;-21.862;2023-01-01T14:02:57;-3271.70;84.40
72338;DHT22;60294;64.134;-21.862;2023-01-01T14:07:54;-3272.20;87.40
72338;DHT22;60294;64.134;-21.862;2023-01-01T14:12:46;-3272.50;88.20
72338;DHT22;60294;64.134;-21.862;2023-01-01T14:17:42;-3272.50;88.10
72338;DHT22;60294;64.134;-21.862;2023-01-01T14:20:14;-3272.70;88.30
72338;DHT22;60294;64.134;-21.862;2023-01-01T14:22:44;-3272.70;88.30
72338;DHT22;60294;64.134;-21.862;2023-01-01T14:25:24;-3272.80;88.30
72338;DHT22;60294;64.134;-21.862;2023-01-01T14:27:52;-3272.80;88.30
72338;DHT22;60294;64.134;-21.862;2023-01-01T14:30:18;-3272.90;88.30
72338;DHT22;60294;64.134;-21.862;2023-01-01T14:32:44;-3273.00;88.40
72338;DHT22;60294;64.134;-21.862;2023-01-01T14:35:14;-3273.00;88.20
72338;DHT22;60294;64.134;-21.862;2023-01-01T14:37:42;-3273.00;88.20
72338;DHT22;60294;64.134;-21.862;2023-01-01T14:42:42;-3273.10;88.20
72338;DHT22;60294;64.134;-21.862;2023-01-01T14:45:17;-3273.20;88.00
72338;DHT22;60294;64.134;-21.862;2023-01-01T14:47:47;-3273.20;87.80
72338;DHT22;60294;64.134;-21.862;2023-01-01T14:50:21;-3273.20;87.80
72338;DHT22;60294;64.134;-21.862;2023-01-01T14:53:15;-3273.20;87.70
72338;DHT22;60294;64.134;-21.862;2023-01-01T14:55:46;-3273.20;87.50
72338;DHT22;60294;64.134;-21.862;2023-01-01T14:58:21;-3273.00;86.40
72338;DHT22;60294;64.134;-21.862;2023-01-01T15:00:48;-3273.00;86.50
72338;DHT22;60294;64.134;-21.862;2023-01-01T15:03:21;-3273.00;86.50
72338;DHT22;60294;64.134;-21.862;2023-01-01T15:06:12;-3273.00;86.40
72338;DHT22;60294;64.134;-21.862;2023-01-01T15:08:40;-3273.00;86.40
72338;DHT22;60294;64.134;-21.862;2023-01-01T15:11:06;-3273.00;86.30
72338;DHT22;60294;64.134;-21.862;2023-01-01T15:13:32;-3273.00;86.40
72338;DHT22;60294;64.134;-21.862;2023-01-01T15:16:15;-3273.00;86.40
72338;DHT22;60294;64.134;-21.862;2023-01-01T15:18:43;-3273.00;86.30
72338;DHT22;60294;64.134;-21.862;2023-01-01T15:21:30;-3272.80;85.70
72338;DHT22;60294;64.134;-21.862;2023-01-01T15:26:43;-3272.70;85.70
72338;DHT22;60294;64.134;-21.862;2023-01-01T15:29:14;-3272.60;85.70
72338;DHT22;60294;64.134;-21.862;2023-01-01T15:31:43;-3272.60;85.70
72338;DHT22;60294;64.134;-21.862;2023-01-01T15:34:28;-3272.70;85.80
72338;DHT22;60294;64.134;-21.862;2023-01-01T15:37:03;-3272.70;85.90
72338;DHT22;60294;64.134;-21.862;2023-01-01T15:39:30;-3272.60;85.70
72338;DHT22;60294;64.134;-21.862;2023-01-01T15:41:56;-3272.50;85.20
72338;DHT22;60294;64.134;-21.862;2023-01-01T15:44:31;-3272.50;85.40
72338;DHT22;60294;64.134;-21.862;2023-01-01T15:47:15;-3272.50;85.30
72338;DHT22;60294;64.134;-21.862;2023-01-01T15:49:41;-3272.40;85.20
72338;DHT22;60294;64.134;-21.862;2023-01-01T15:52:24;-3272.20;85.00
72338;DHT22;60294;64.134;-21.862;2023-01-01T15:54:52;-3272.00;84.80
72338;DHT22;60294;64.134;-21.862;2023-01-01T15:57:20;-3272.00;84.80
72338;DHT22;60294;64.134;-21.862;2023-01-01T15:59:49;-3271.90;84.90
72338;DHT22;60294;64.134;-21.862;2023-01-01T16:02:29;-3271.90;84.90
72338;DHT22;60294;64.134;-21.862;2023-01-01T16:04:57;-3271.70;84.70
72338;DHT22;60294;64.134;-21.862;2023-01-01T16:07:24;-3271.60;84.30
72338;DHT22;60294;64.134;-21.862;2023-01-01T16:09:52;-3271.50;84.30
72338;DHT22;60294;64.134;-21.862;2023-01-01T16:12:18;-3271.40;84.30
72338;DHT22;60294;64.134;-21.862;2023-01-01T16:14:44;-3271.40;84.30
72338;DHT22;60294;64.134;-21.862;2023-01-01T16:17:18;-3271.30;84.30
72338;DHT22;60294;64.134;-21.862;2023-01-01T16:19:45;-3271.30;84.40
72338;DHT22;60294;64.134;-21.862;2023-01-01T16:22:16;-3271.30;84.30
72338;DHT22;60294;64.134;-21.862;2023-01-01T16:24:43;-3271.20;84.20
72338;DHT22;60294;64.134;-21.862;2023-01-01T16:27:10;-3271.10;84.30
72338;DHT22;60294;64.134;-21.862;2023-01-01T16:29:36;-3271.10;84.20
72338;DHT22;60294;64.134;-21.862;2023-01-01T16:32:02;-3271.10;84.10
72338;DHT22;60294;64.134;-21.862;2023-01-01T16:34:28;-3271.00;83.90
72338;DHT22;60294;64.134;-21.862;2023-01-01T16:36:54;-3270.90;83.80
72338;DHT22;60294;64.134;-21.862;2023-01-01T16:39:19;-3270.90;83.70
72338;DHT22;60294;64.134;-21.862;2023-01-01T16:41:45;-3270.90;83.70
72338;DHT22;60294;64.134;-21.862;2023-01-01T16:44:15;-3270.90;83.60
72338;DHT22;60294;64.134;-21.862;2023-01-01T16:46:41;-3270.80;83.50
72338;DHT22;60294;64.134;-21.862;2023-01-01T16:49:07;-3270.70;83.40
72338;DHT22;60294;64.134;-21.862;2023-01-01T16:51:33;-3270.70;83.30